PWSweather.com
Personal Weather Stations
Station Observations
MACKBIG
Historic Main Street, Unionville, ON L3R6A5

Historic Main StreetUnionville, ON L3R6A5

Lat: 43.875506, Lon: -79.312903

Elevation: 590

Station Type: Davis VP2 + 6163

http://www.mackweather.com

Latest ConditionsUpdated 4:50:08 PM EDT Wednesday, Apr 24, 2019
Currently Today's Max Today's Min Today's Average
Temperature 54.7°F12.6°C 55.1°F12.8°C 39.1°F3.9°C 45.0°F7.2°C
Dew Point 40.6°F4.8°C 41.6°F5.3°C 33.1°F0.6°C 36.6°F2.6°C
Winds 6.0 mph NW9.7 kmh NW 13.0 mph -20.9 kmh - - 7.5 mph 12.1 kmh
Wind Gusts 13.0 mph20.9 kmh 21.0 mph33.8 kmh - -
Humidity 59% 80% 59% 73%
Pressure 29.89 in1012.2 mb 29.92 in1013.2 mb 29.84 in1010.5 mb -
Hour Temp Dew Point Humidity Winds Wind Gusts Pressure Precip Precip Rate Daily Precip Total
04:50 PM 54.7°F12.6°C 40.6°F4.8°C 59% 6.0 mph NW9.7 kmh NW 13.0 mph20.9 kmh 29.89 in1012.2 mb - 0.00 in0.0 mm 0.00 in0.0 mm
04:40 PM 54.5°F12.5°C 40.4°F4.7°C 59% 2.0 mph WNW3.2 kmh WNW 1.0 mph1.6 kmh 29.89 in1012.2 mb - 0.00 in0.0 mm 0.00 in0.0 mm
04:30 PM 55.1°F12.8°C 41.0°F5.0°C 59% 9.0 mph NW14.5 kmh NW 12.0 mph19.3 kmh 29.89 in1012.2 mb - 0.00 in0.0 mm 0.00 in0.0 mm
04:20 PM 54.3°F12.4°C 41.6°F5.3°C 62% 5.0 mph NW8.0 kmh NW 10.0 mph16.1 kmh 29.89 in1012.2 mb - 0.00 in0.0 mm 0.00 in0.0 mm
04:10 PM 54.0°F12.2°C 40.0°F4.4°C 59% 6.0 mph NW9.7 kmh NW 8.0 mph12.9 kmh 29.89 in1012.2 mb - 0.00 in0.0 mm 0.00 in0.0 mm
04:00 PM 53.8°F12.1°C 40.2°F4.6°C 60% 6.0 mph NW9.7 kmh NW 8.0 mph12.9 kmh 29.89 in1012.2 mb - 0.00 in0.0 mm 0.00 in0.0 mm
03:50 PM 53.4°F11.9°C 39.9°F4.4°C 60% 7.0 mph NNW11.3 kmh NNW 9.0 mph14.5 kmh 29.89 in1012.2 mb - 0.00 in0.0 mm 0.00 in0.0 mm
03:40 PM 52.5°F11.4°C 40.6°F4.8°C 64% 8.0 mph NW12.9 kmh NW 12.0 mph19.3 kmh 29.89 in1012.2 mb - 0.00 in0.0 mm 0.00 in0.0 mm
03:30 PM 52.4°F11.3°C 40.6°F4.8°C 64% 8.0 mph NW12.9 kmh NW 12.0 mph19.3 kmh 29.89 in1012.2 mb - 0.00 in0.0 mm 0.00 in0.0 mm
03:20 PM 52.3°F11.3°C 40.9°F4.9°C 65% 7.0 mph NNW11.3 kmh NNW 9.0 mph14.5 kmh 29.89 in1012.2 mb - 0.00 in0.0 mm 0.00 in0.0 mm
03:10 PM 51.9°F11.1°C 40.9°F4.9°C 66% 6.0 mph NW9.7 kmh NW 10.0 mph16.1 kmh 29.89 in1012.2 mb - 0.00 in0.0 mm 0.00 in0.0 mm
03:00 PM 51.7°F10.9°C 39.9°F4.4°C 64% 6.0 mph NW9.7 kmh NW 7.0 mph11.3 kmh 29.90 in1012.5 mb - 0.00 in0.0 mm 0.00 in0.0 mm
02:50 PM 50.7°F10.4°C 40.2°F4.6°C 67% 9.0 mph WNW14.5 kmh WNW 13.0 mph20.9 kmh 29.91 in1012.9 mb - 0.00 in0.0 mm 0.00 in0.0 mm
02:40 PM 50.0°F10.0°C 39.5°F4.2°C 67% 6.0 mph N9.7 kmh N 10.0 mph16.1 kmh 29.91 in1012.9 mb - 0.00 in0.0 mm 0.00 in0.0 mm
02:30 PM 49.2°F9.6°C 39.5°F4.2°C 69% 3.0 mph N4.8 kmh N 12.0 mph19.3 kmh 29.90 in1012.5 mb - 0.00 in0.0 mm 0.00 in0.0 mm
02:20 PM 48.8°F9.3°C 38.7°F3.7°C 68% 7.0 mph NW11.3 kmh NW 12.0 mph19.3 kmh 29.90 in1012.5 mb - 0.00 in0.0 mm 0.00 in0.0 mm
02:10 PM 48.7°F9.3°C 39.0°F3.9°C 69% 8.0 mph N12.9 kmh N 12.0 mph19.3 kmh 29.90 in1012.5 mb - 0.00 in0.0 mm 0.00 in0.0 mm
02:00 PM 47.7°F8.7°C 38.4°F3.6°C 70% 5.0 mph N8.0 kmh N 7.0 mph11.3 kmh 29.91 in1012.9 mb - 0.00 in0.0 mm 0.00 in0.0 mm
01:50 PM 47.5°F8.6°C 38.2°F3.4°C 70% 7.0 mph NW11.3 kmh NW 8.0 mph12.9 kmh 29.91 in1012.9 mb - 0.00 in0.0 mm 0.00 in0.0 mm
01:40 PM 47.0°F8.3°C 37.7°F3.2°C 70% 6.0 mph NNW9.7 kmh NNW 10.0 mph16.1 kmh 29.91 in1012.9 mb - 0.00 in0.0 mm 0.00 in0.0 mm
01:30 PM 46.7°F8.2°C 37.5°F3.1°C 70% 6.0 mph NW9.7 kmh NW 10.0 mph16.1 kmh 29.91 in1012.9 mb - 0.00 in0.0 mm 0.00 in0.0 mm
01:20 PM 46.4°F8.0°C 37.5°F3.1°C 71% 7.0 mph NW11.3 kmh NW 9.0 mph14.5 kmh 29.91 in1012.9 mb - 0.00 in0.0 mm 0.00 in0.0 mm
01:10 PM 46.3°F7.9°C 37.4°F3.0°C 71% 5.0 mph WNW8.0 kmh WNW 6.0 mph9.7 kmh 29.92 in1013.2 mb - 0.00 in0.0 mm 0.00 in0.0 mm
01:00 PM 45.7°F7.6°C 37.2°F2.9°C 72% 7.0 mph NW11.3 kmh NW 14.0 mph22.5 kmh 29.92 in1013.2 mb - 0.00 in0.0 mm 0.00 in0.0 mm
12:50 PM 45.8°F7.7°C 36.9°F2.7°C 71% 12.0 mph WNW19.3 kmh WNW 14.0 mph22.5 kmh 29.92 in1013.2 mb - 0.00 in0.0 mm 0.00 in0.0 mm
12:40 PM 45.7°F7.6°C 37.2°F2.9°C 72% 8.0 mph NW12.9 kmh NW 13.0 mph20.9 kmh 29.92 in1013.2 mb - 0.00 in0.0 mm 0.00 in0.0 mm
12:30 PM 45.5°F7.5°C 37.0°F2.8°C 72% 5.0 mph NW8.0 kmh NW 9.0 mph14.5 kmh 29.92 in1013.2 mb - 0.00 in0.0 mm 0.00 in0.0 mm
12:20 PM 45.2°F7.3°C 37.1°F2.8°C 73% 12.0 mph WNW19.3 kmh WNW 21.0 mph33.8 kmh 29.92 in1013.2 mb - 0.00 in0.0 mm 0.00 in0.0 mm
12:10 PM 44.7°F7.1°C 36.6°F2.6°C 73% 10.0 mph WNW16.1 kmh WNW 16.0 mph25.7 kmh 29.92 in1013.2 mb - 0.00 in0.0 mm 0.00 in0.0 mm
12:00 PM 44.7°F7.1°C 36.9°F2.7°C 74% 10.0 mph NW16.1 kmh NW 20.0 mph32.2 kmh 29.92 in1013.2 mb - 0.00 in0.0 mm 0.00 in0.0 mm
11:50 AM 44.0°F6.7°C 36.2°F2.3°C 74% 7.0 mph NW11.3 kmh NW 14.0 mph22.5 kmh 29.91 in1012.9 mb - 0.00 in0.0 mm 0.00 in0.0 mm
11:40 AM 43.7°F6.5°C 36.0°F2.2°C 74% 8.0 mph NNW12.9 kmh NNW 18.0 mph29.0 kmh 29.92 in1013.2 mb - 0.00 in0.0 mm 0.00 in0.0 mm
11:30 AM 43.7°F6.5°C 36.3°F2.4°C 75% 8.0 mph WNW12.9 kmh WNW 20.0 mph32.2 kmh 29.92 in1013.2 mb - 0.00 in0.0 mm 0.00 in0.0 mm
11:20 AM 43.4°F6.3°C 36.3°F2.4°C 76% 8.0 mph W12.9 kmh W 18.0 mph29.0 kmh 29.91 in1012.9 mb - 0.00 in0.0 mm 0.00 in0.0 mm
11:10 AM 43.1°F6.2°C 36.0°F2.2°C 76% 8.0 mph NW12.9 kmh NW 16.0 mph25.7 kmh 29.91 in1012.9 mb - 0.00 in0.0 mm 0.00 in0.0 mm
11:00 AM 42.5°F5.8°C 35.8°F2.1°C 77% 6.0 mph NW9.7 kmh NW 12.0 mph19.3 kmh 29.92 in1013.2 mb - 0.00 in0.0 mm 0.00 in0.0 mm
10:50 AM 42.1°F5.6°C 35.4°F1.9°C 77% 7.0 mph NW11.3 kmh NW 12.0 mph19.3 kmh 29.91 in1012.9 mb - 0.00 in0.0 mm 0.00 in0.0 mm
10:40 AM 41.9°F5.5°C 35.2°F1.8°C 77% 9.0 mph WNW14.5 kmh WNW 16.0 mph25.7 kmh 29.91 in1012.9 mb - 0.00 in0.0 mm 0.00 in0.0 mm
10:30 AM 41.7°F5.4°C 35.0°F1.7°C 77% 10.0 mph NW16.1 kmh NW 20.0 mph32.2 kmh 29.91 in1012.9 mb - 0.00 in0.0 mm 0.00 in0.0 mm
10:20 AM 41.5°F5.3°C 35.2°F1.8°C 78% 6.0 mph NNW9.7 kmh NNW 13.0 mph20.9 kmh 29.90 in1012.5 mb - 0.00 in0.0 mm 0.00 in0.0 mm
10:10 AM 41.3°F5.2°C 35.0°F1.7°C 78% 10.0 mph WNW16.1 kmh WNW 21.0 mph33.8 kmh 29.90 in1012.5 mb - 0.00 in0.0 mm 0.00 in0.0 mm
10:01 AM 41.1°F5.1°C 34.8°F1.6°C 78% 7.0 mph NW11.3 kmh NW 12.0 mph19.3 kmh 29.90 in1012.5 mb - 0.00 in0.0 mm 0.00 in0.0 mm
09:52 AM 40.9°F4.9°C 34.6°F1.4°C 78% 7.0 mph NW11.3 kmh NW 17.0 mph27.4 kmh 29.89 in1012.2 mb - 0.00 in0.0 mm 0.00 in0.0 mm
09:40 AM 40.6°F4.8°C 34.3°F1.3°C 78% 8.0 mph WNW12.9 kmh WNW 12.0 mph19.3 kmh 29.89 in1012.2 mb - 0.00 in0.0 mm 0.00 in0.0 mm
09:30 AM 40.5°F4.7°C 34.5°F1.4°C 79% 8.0 mph WNW12.9 kmh WNW 12.0 mph19.3 kmh 29.89 in1012.2 mb - 0.00 in0.0 mm 0.00 in0.0 mm
09:20 AM 40.3°F4.6°C 34.3°F1.3°C 79% 6.0 mph WNW9.7 kmh WNW 12.0 mph19.3 kmh 29.89 in1012.2 mb - 0.00 in0.0 mm 0.00 in0.0 mm
09:10 AM 40.2°F4.6°C 34.2°F1.2°C 79% 7.0 mph NW11.3 kmh NW 13.0 mph20.9 kmh 29.89 in1012.2 mb - 0.00 in0.0 mm 0.00 in0.0 mm
09:00 AM 40.1°F4.5°C 34.1°F1.2°C 79% 8.0 mph NW12.9 kmh NW 12.0 mph19.3 kmh 29.88 in1011.9 mb - 0.00 in0.0 mm 0.00 in0.0 mm
08:50 AM 39.9°F4.4°C 33.9°F1.1°C 79% 13.0 mph NW20.9 kmh NW 17.0 mph27.4 kmh 29.87 in1011.5 mb - 0.00 in0.0 mm 0.00 in0.0 mm
08:40 AM 39.7°F4.3°C 33.7°F0.9°C 79% 12.0 mph NW19.3 kmh NW 20.0 mph32.2 kmh 29.87 in1011.5 mb - 0.00 in0.0 mm 0.00 in0.0 mm
08:30 AM 39.6°F4.2°C 33.6°F0.9°C 79% 10.0 mph NW16.1 kmh NW 16.0 mph25.7 kmh 29.87 in1011.5 mb - 0.00 in0.0 mm 0.00 in0.0 mm
08:20 AM 39.4°F4.1°C 33.4°F0.8°C 79% 9.0 mph NW14.5 kmh NW 18.0 mph29.0 kmh 29.88 in1011.9 mb - 0.00 in0.0 mm 0.00 in0.0 mm
08:10 AM 39.4°F4.1°C 33.4°F0.8°C 79% 9.0 mph NW14.5 kmh NW 13.0 mph20.9 kmh 29.88 in1011.9 mb - 0.00 in0.0 mm 0.00 in0.0 mm
08:00 AM 39.3°F4.1°C 33.6°F0.9°C 80% 9.0 mph NW14.5 kmh NW 15.0 mph24.1 kmh 29.87 in1011.5 mb - 0.00 in0.0 mm 0.00 in0.0 mm
07:50 AM 39.2°F4.0°C 33.5°F0.8°C 80% 7.0 mph NW11.3 kmh NW 14.0 mph22.5 kmh 29.87 in1011.5 mb - 0.00 in0.0 mm 0.00 in0.0 mm
07:40 AM 39.2°F4.0°C 33.5°F0.8°C 80% 7.0 mph NW11.3 kmh NW 13.0 mph20.9 kmh 29.87 in1011.5 mb - 0.00 in0.0 mm 0.00 in0.0 mm
07:30 AM 39.1°F3.9°C 33.1°F0.6°C 79% 6.0 mph WNW9.7 kmh WNW 10.0 mph16.1 kmh 29.86 in1011.2 mb - 0.00 in0.0 mm 0.00 in0.0 mm
07:20 AM 39.1°F3.9°C 33.1°F0.6°C 79% 8.0 mph NW12.9 kmh NW 21.0 mph33.8 kmh 29.86 in1011.2 mb - 0.00 in0.0 mm 0.00 in0.0 mm
07:10 AM 39.2°F4.0°C 33.2°F0.7°C 79% 8.0 mph WNW12.9 kmh WNW 18.0 mph29.0 kmh 29.86 in1011.2 mb - 0.00 in0.0 mm 0.00 in0.0 mm
07:00 AM 39.2°F4.0°C 33.2°F0.7°C 79% 7.0 mph WNW11.3 kmh WNW 12.0 mph19.3 kmh 29.85 in1010.8 mb - 0.00 in0.0 mm 0.00 in0.0 mm
06:50 AM 39.2°F4.0°C 33.2°F0.7°C 79% 8.0 mph NNW12.9 kmh NNW 18.0 mph29.0 kmh 29.85 in1010.8 mb - 0.00 in0.0 mm 0.00 in0.0 mm
06:40 AM 39.2°F4.0°C 33.2°F0.7°C 79% 6.0 mph NW9.7 kmh NW 12.0 mph19.3 kmh 29.84 in1010.5 mb - 0.00 in0.0 mm 0.00 in0.0 mm